Create Tblcommutelog Verified Points Advance Search
| # | Trip ID | Id Commuter | Trip Date | Trip Num | Current Lat | Current Lng | Delta Distance | Current Time | Activity | Activity Confidence | Current Speed | |
|---|---|---|---|---|---|---|---|---|---|---|---|---|
| 70221 | 250819_782588_16513676_0701 | 782588 | (not set) | (not set) | 39.176383726611 | -76.693236048413 | 8.7834 | 2025-08-19 07:25:17 | in_vehicle | 100 | 1.1533612881883 | |
| 70222 | 250819_783029_6431355_0703 | 783029 | (not set) | (not set) | 38.881191940772 | -77.033556512799 | 6.8325 | 2025-08-19 07:25:25 | in_vehicle | 100 | -0.44703925898772 | |
| 70223 | 250819_770872_16486958_0708 | 770872 | (not set) | (not set) | 39.26817509229 | -76.628947482935 | 14.847 | 2025-08-19 07:25:32 | in_vehicle | 100 | 9.2715942314054 | |
| 70224 | 250819_785147_16514010_0713 | 785147 | (not set) | (not set) | 39.0824215 | -78.083430333333 | 6.8007 | 2025-08-19 07:25:40 | in_vehicle | 100 | 11.913596252023 | |
| 70225 | 250819_765082_16507383_0715 | 765082 | (not set) | (not set) | 38.862306554657 | -77.048053485749 | 3.2444 | 2025-08-19 07:25:45 | in_vehicle | 100 | 5.2214185449766 | |
| 70226 | 250819_786132_16505268_0648 | 786132 | (not set) | (not set) | 38.822750756475 | -76.917431324856 | 36.0961 | 2025-08-19 07:25:50 | in_vehicle | 100 | 6.9022861587705 | |
| 70227 | 250819_787311_16430940_0716 | 787311 | (not set) | (not set) | 39.481658606378 | -76.184520428723 | 5.4688 | 2025-08-19 07:19:53 | unknown | 100 | 24.292113333393 | |
| 70228 | 250819_788077_16505268_0645 | 788077 | (not set) | (not set) | 38.801541537928 | -77.00179175337 | 30.8462 | 2025-08-19 07:20:01 | unknown | 100 | 12.230994125904 | |
| 70229 | 250819_784923_16478950_0632 | 784923 | (not set) | (not set) | 38.750104911316 | -76.879519551168 | 17.2365 | 2025-08-19 07:20:06 | unknown | 100 | 10.20590628269 | |
| 70230 | 250819_738572_16489587_0711 | 738572 | (not set) | (not set) | 38.983396340112 | -76.557758815481 | 1.1521 | 2025-08-19 07:20:13 | in_vehicle | 100 | 10.17908392715 | |
| 70231 | 250819_786932_16444065_0712 | 786932 | (not set) | (not set) | 39.292367916667 | -76.572373933333 | 1.0261 | 2025-08-19 07:20:20 | in_vehicle | 100 | 5.6595170187846 | |
| 70232 | 250819_788214_16515442_0709 | 788214 | (not set) | (not set) | 38.896410443037 | -77.173528036105 | 3.4157 | 2025-08-19 07:20:28 | unknown | 100 | 9.5889921052867 | |
| 70233 | 250819_782588_16513676_0701 | 782588 | (not set) | (not set) | 39.164669208499 | -76.64725593355 | 5.0331 | 2025-08-19 07:20:36 | in_vehicle | 100 | 9.1464232388888 | |
| 70234 | 250819_759303_16654877_0556 | 759303 | (not set) | (not set) | 38.896309738698 | -77.016908585693 | 43.569 | 2025-08-19 07:20:41 | unknown | 100 | -0.44703925898772 | |
| 70235 | 250819_784692_16513841_0635 | 784692 | (not set) | (not set) | 38.806362021596 | -76.987716706503 | 31.8974 | 2025-08-19 07:20:49 | in_vehicle | 100 | 12.897082621796 | |
| 70236 | 250819_784923_16478950_0632 | 784923 | (not set) | (not set) | 38.759717517893 | -76.880171082638 | 17.9115 | 2025-08-19 07:20:58 | unknown | 100 | 9.141952846299 | |
| 70237 | 250819_788214_16515442_0709 | 788214 | (not set) | (not set) | 38.891858212421 | -77.166730545159 | 3.9026 | 2025-08-19 07:21:04 | unknown | 100 | 9.8661564458591 | |
| 70238 | 250819_782588_16513676_0701 | 782588 | (not set) | (not set) | 39.163624868035 | -76.656211693233 | 5.5195 | 2025-08-19 07:21:11 | still | 33 | 10.684238289807 | |
| 70239 | 250819_785264_6438355_0640 | 785264 | (not set) | (not set) | 38.934765909066 | -77.265401368539 | 17.2642 | 2025-08-19 07:21:16 | still | 33 | -0.44703925898772 | |
| 70240 | 250819_786930_16432785_0718 | 786930 | (not set) | (not set) | 39.292617680762 | -76.565694627516 | 1.1423 | 2025-08-19 07:21:21 | unknown | 100 | 5.570109166987 |